createdAt,value
2022-12-14T00:02:10.689Z,67.73
2022-12-14T00:04:39.544Z,71.83
2022-12-14T00:07:09.163Z,64.63
2022-12-14T00:09:37.772Z,61.40
2022-12-14T00:12:06.874Z,72.47
2022-12-14T00:14:35.712Z,72.13
2022-12-14T00:17:04.104Z,71.17
2022-12-14T00:19:32.676Z,68.27
2022-12-14T00:22:00.952Z,68.73
2022-12-14T00:24:30.944Z,78.97
2022-12-14T00:26:59.277Z,61.00
2022-12-14T00:29:28.075Z,63.73
2022-12-14T00:31:56.963Z,66.37
2022-12-14T00:34:25.632Z,58.50
2022-12-14T00:36:54.632Z,62.20
2022-12-14T00:39:23.421Z,56.63
2022-12-14T00:41:53.091Z,65.47
2022-12-14T00:44:21.635Z,55.10
2022-12-14T00:46:50.125Z,66.03
2022-12-14T00:49:19.136Z,50.10
2022-12-14T00:51:47.560Z,65.83
2022-12-14T00:54:16.452Z,64.57
2022-12-14T00:56:44.907Z,63.00
2022-12-14T00:59:15.047Z,57.83
2022-12-14T01:01:43.641Z,69.13
2022-12-14T01:04:19.510Z,66.33
2022-12-14T01:06:49.050Z,60.73
2022-12-14T01:09:18.184Z,76.27
2022-12-14T01:11:46.868Z,71.60
2022-12-14T01:14:19.092Z,77.37
2022-12-14T01:16:47.630Z,70.80
2022-12-14T01:19:17.048Z,73.80
2022-12-14T01:21:45.336Z,70.23
2022-12-14T01:24:14.010Z,69.87
2022-12-14T01:26:42.550Z,82.40
2022-12-14T01:29:13.081Z,76.93
2022-12-14T01:31:43.240Z,71.57
2022-12-14T01:34:12.142Z,69.80
2022-12-14T01:36:40.844Z,70.17
2022-12-14T01:39:13.751Z,66.13
2022-12-14T01:41:45.103Z,78.50
2022-12-14T01:44:51.482Z,60.83
2022-12-14T01:47:26.350Z,71.97
2022-12-14T01:50:00.957Z,69.47
2022-12-14T01:52:34.601Z,67.00
2022-12-14T01:55:06.176Z,77.57
2022-12-14T01:57:39.283Z,71.63
2022-12-14T02:00:12.688Z,80.47
2022-12-14T02:02:48.085Z,70.83
2022-12-14T02:05:19.516Z,77.30
2022-12-14T02:07:49.277Z,75.40
2022-12-14T02:10:18.686Z,77.97
2022-12-14T02:12:50.864Z,86.40
2022-12-14T02:15:19.849Z,83.10
2022-12-14T02:17:50.029Z,77.57
2022-12-14T02:20:19.260Z,86.90
2022-12-14T02:23:27.577Z,70.10
2022-12-14T02:26:30.339Z,84.37
2022-12-14T02:29:37.404Z,80.37
2022-12-14T02:32:21.000Z,73.63
2022-12-14T02:34:59.608Z,77.13
2022-12-14T02:37:36.152Z,71.30
2022-12-14T02:40:22.662Z,75.70
2022-12-14T02:43:01.976Z,89.50
2022-12-14T02:45:37.992Z,100.47
2022-12-14T02:48:10.621Z,98.87
2022-12-14T02:50:44.657Z,97.50
2022-12-14T02:53:20.976Z,88.90
2022-12-14T02:55:51.635Z,85.93
2022-12-14T02:58:24.741Z,76.77
2022-12-14T03:00:54.662Z,78.40
2022-12-14T03:03:25.133Z,81.57
2022-12-14T03:05:58.807Z,67.60
2022-12-14T03:08:28.977Z,80.63
2022-12-14T03:10:59.903Z,77.37
2022-12-14T03:13:32.692Z,71.37
2022-12-14T03:16:05.950Z,80.70
2022-12-14T03:18:40.292Z,72.93
2022-12-14T03:21:13.413Z,71.83
2022-12-14T03:23:48.725Z,47.37
2022-12-14T03:26:21.776Z,52.87
2022-12-14T03:28:54.029Z,48.83
2022-12-14T03:31:26.766Z,56.70
2022-12-14T03:33:59.834Z,69.40
2022-12-14T03:36:35.851Z,59.80
2022-12-14T03:39:08.833Z,58.80
2022-12-14T03:41:53.736Z,53.97
2022-12-14T03:44:33.514Z,51.10
2022-12-14T03:47:13.564Z,47.43
2022-12-14T03:49:54.625Z,57.53
2022-12-14T03:52:28.456Z,54.57
2022-12-14T03:55:09.014Z,62.10
2022-12-14T03:57:47.144Z,54.90
2022-12-14T04:00:21.560Z,45.87
2022-12-14T04:02:54.435Z,52.73
2022-12-14T04:05:29.997Z,51.17
2022-12-14T04:08:06.405Z,44.97
2022-12-14T04:11:00.043Z,46.00
2022-12-14T04:14:06.487Z,54.20
2022-12-14T04:16:56.750Z,45.27
2022-12-14T04:19:29.260Z,48.67
2022-12-14T04:22:04.138Z,48.23
2022-12-14T04:24:55.654Z,48.03
2022-12-14T04:27:32.059Z,43.83
2022-12-14T04:30:01.783Z,36.83
2022-12-14T04:32:35.531Z,56.97
2022-12-14T04:35:10.700Z,48.43
2022-12-14T04:37:42.703Z,38.70
2022-12-14T04:40:13.759Z,38.27
2022-12-14T04:42:48.119Z,44.17
2022-12-14T04:45:20.901Z,37.60
2022-12-14T04:47:55.446Z,49.20
2022-12-14T04:50:28.510Z,43.80
2022-12-14T04:53:03.940Z,37.73
2022-12-14T04:55:37.974Z,38.00
2022-12-14T04:58:11.653Z,43.50
2022-12-14T05:00:52.311Z,40.07
2022-12-14T05:03:27.107Z,41.33
2022-12-14T05:06:06.591Z,40.53
2022-12-14T05:09:02.528Z,39.87
2022-12-14T05:14:33.368Z,43.53
2022-12-14T05:17:08.426Z,39.70
2022-12-14T05:19:45.125Z,45.70
2022-12-14T05:22:18.382Z,48.63
2022-12-14T05:24:48.446Z,39.30
2022-12-14T05:27:16.683Z,43.70
2022-12-14T05:29:45.243Z,43.40
2022-12-14T05:32:14.212Z,39.17
2022-12-14T05:34:43.245Z,41.73
2022-12-14T05:37:18.013Z,42.77
2022-12-14T05:39:48.484Z,34.50
2022-12-14T05:42:17.053Z,40.80
2022-12-14T05:44:45.816Z,39.50
2022-12-14T05:47:15.238Z,40.53
2022-12-14T05:49:43.888Z,37.70
2022-12-14T05:52:12.150Z,35.20
2022-12-14T05:54:40.858Z,39.17
2022-12-14T05:57:10.515Z,37.33
2022-12-14T05:59:39.064Z,40.07
2022-12-14T06:02:07.453Z,35.17
2022-12-14T06:04:36.286Z,30.63
2022-12-14T06:07:04.670Z,34.27
2022-12-14T06:09:33.564Z,41.13
2022-12-14T06:12:03.215Z,34.97
2022-12-14T06:14:33.231Z,47.63
2022-12-14T06:17:01.551Z,43.23
2022-12-14T06:19:30.793Z,38.23
2022-12-14T06:21:59.117Z,37.93
2022-12-14T06:24:27.709Z,38.97
2022-12-14T06:26:56.041Z,41.53
2022-12-14T06:29:24.556Z,48.90
2022-12-14T06:31:54.524Z,43.17
2022-12-14T06:34:28.156Z,44.30
2022-12-14T06:36:57.011Z,44.10
2022-12-14T06:39:25.658Z,49.90
2022-12-14T06:41:53.975Z,42.07
2022-12-14T06:44:22.752Z,40.00
2022-12-14T06:46:51.759Z,37.43
2022-12-14T06:49:21.876Z,35.50
2022-12-14T06:51:50.791Z,45.73
2022-12-14T06:54:20.248Z,39.83
2022-12-14T06:56:49.139Z,38.07
2022-12-14T06:59:18.031Z,57.33
2022-12-14T07:01:50.002Z,45.87
2022-12-14T07:04:21.410Z,39.07
2022-12-14T07:06:51.448Z,40.90
2022-12-14T07:09:20.162Z,44.80
2022-12-14T07:11:51.665Z,36.93
2022-12-14T07:14:20.648Z,45.10
2022-12-14T07:16:49.267Z,35.17
2022-12-14T07:19:18.713Z,38.67
2022-12-14T07:21:47.018Z,42.63
2022-12-14T07:24:17.485Z,43.40
2022-12-14T07:26:45.815Z,43.33
2022-12-14T07:29:15.183Z,32.73
2022-12-14T07:31:43.802Z,46.30
2022-12-14T07:34:17.994Z,39.03
2022-12-14T07:36:46.267Z,45.10
2022-12-14T07:39:15.474Z,51.70
2022-12-14T07:41:47.132Z,42.00
2022-12-14T07:44:22.856Z,43.13
2022-12-14T07:46:51.283Z,40.70
2022-12-14T07:49:19.992Z,40.43
2022-12-14T07:51:48.343Z,37.30
2022-12-14T07:54:16.954Z,47.37
2022-12-14T07:56:46.605Z,40.43
2022-12-14T07:59:16.461Z,47.20
2022-12-14T08:01:45.741Z,44.77
2022-12-14T08:04:16.224Z,49.20
2022-12-14T08:06:46.798Z,41.80
2022-12-14T08:09:16.707Z,50.60
2022-12-14T08:11:46.377Z,38.97
2022-12-14T08:14:18.195Z,48.20
2022-12-14T08:16:47.701Z,49.47
2022-12-14T08:19:17.152Z,44.33
2022-12-14T08:21:46.361Z,40.67
2022-12-14T08:24:16.959Z,44.23
2022-12-14T08:26:49.097Z,49.50
2022-12-14T08:29:18.971Z,43.23
2022-12-14T08:31:47.951Z,53.40
2022-12-14T08:34:22.030Z,54.73
2022-12-14T08:36:50.461Z,58.03
2022-12-14T08:39:19.001Z,44.77
2022-12-14T08:41:48.739Z,40.13
2022-12-14T08:44:18.770Z,49.97
2022-12-14T08:46:47.640Z,47.13
2022-12-14T08:49:17.146Z,48.17
2022-12-14T08:51:45.410Z,53.23
2022-12-14T08:54:13.942Z,50.07
2022-12-14T08:56:42.320Z,47.97
2022-12-14T08:59:24.651Z,36.70
2022-12-14T09:02:00.758Z,55.50
2022-12-14T09:04:29.645Z,46.60
2022-12-14T09:06:57.918Z,57.07
2022-12-14T09:09:26.622Z,54.37
2022-12-14T09:11:54.930Z,49.97
2022-12-14T09:14:24.956Z,56.57
2022-12-14T09:16:53.467Z,63.33
2022-12-14T09:19:22.122Z,57.67
2022-12-14T09:21:50.477Z,60.87
2022-12-14T09:24:19.971Z,49.63
2022-12-14T09:26:48.618Z,64.33
2022-12-14T09:29:19.298Z,61.90
2022-12-14T09:31:49.260Z,64.63
2022-12-14T09:34:17.913Z,47.47
2022-12-14T09:36:46.853Z,71.77
2022-12-14T09:39:15.459Z,53.27
2022-12-14T09:42:01.976Z,62.10
2022-12-14T09:44:41.882Z,46.90
2022-12-14T09:47:17.044Z,59.77
2022-12-14T09:49:50.479Z,61.20
2022-12-14T09:52:22.392Z,64.40
2022-12-14T09:54:52.471Z,62.20
2022-12-14T09:57:29.251Z,63.60
2022-12-14T09:59:58.161Z,62.40
2022-12-14T10:02:37.820Z,67.53
2022-12-14T10:05:24.830Z,60.87
2022-12-14T10:08:04.021Z,52.30
2022-12-14T10:10:41.415Z,59.50
2022-12-14T10:13:20.763Z,58.57
2022-12-14T10:15:59.446Z,63.07
2022-12-14T10:19:00.159Z,74.07
2022-12-14T10:21:42.207Z,58.33
2022-12-14T10:24:16.218Z,57.43
2022-12-14T10:26:49.637Z,71.90
2022-12-14T10:29:27.112Z,64.43
2022-12-14T10:32:04.990Z,63.13
2022-12-14T10:34:35.779Z,60.40
2022-12-14T10:37:18.452Z,64.93
2022-12-14T10:39:55.842Z,65.00
2022-12-14T10:42:31.957Z,65.10
2022-12-14T10:48:14.924Z,56.20
2022-12-14T10:50:54.946Z,64.37
2022-12-14T10:53:29.951Z,60.37
2022-12-14T10:56:04.475Z,67.43
2022-12-14T10:58:33.667Z,60.23
2022-12-14T11:01:02.238Z,66.47
2022-12-14T11:03:30.908Z,59.63
2022-12-14T11:06:07.599Z,72.97
2022-12-14T11:08:42.075Z,72.67
2022-12-14T11:11:18.962Z,67.27
2022-12-14T11:13:53.247Z,72.20
2022-12-14T11:16:36.576Z,67.17
2022-12-14T11:19:14.700Z,70.17
2022-12-14T11:21:45.036Z,68.20
2022-12-14T11:24:23.354Z,70.60
2022-12-14T11:26:54.671Z,78.07
2022-12-14T11:29:29.825Z,66.97
2022-12-14T11:31:58.580Z,65.90
2022-12-14T11:34:31.691Z,74.73
2022-12-14T11:37:15.448Z,66.40
2022-12-14T11:39:44.133Z,67.47
2022-12-14T11:42:18.884Z,68.83
2022-12-14T11:44:49.018Z,77.70
2022-12-14T11:47:19.235Z,60.87
2022-12-14T11:49:49.773Z,67.00
2022-12-14T11:52:20.952Z,67.90
2022-12-14T11:55:07.968Z,78.57
2022-12-14T11:57:38.775Z,66.07
2022-12-14T12:00:22.022Z,67.50
2022-12-14T12:03:00.232Z,77.27
2022-12-14T12:05:31.615Z,74.33
2022-12-14T12:08:03.230Z,65.77
2022-12-14T12:10:41.320Z,68.33
2022-12-14T12:13:22.297Z,76.90
2022-12-14T12:15:53.585Z,75.30
2022-12-14T12:18:27.925Z,77.43
2022-12-14T12:21:03.257Z,69.90
2022-12-14T12:23:39.149Z,67.10
2022-12-14T12:26:16.238Z,68.93
2022-12-14T12:28:49.538Z,63.23
2022-12-14T12:31:24.740Z,70.93
2022-12-14T12:33:59.337Z,87.13
2022-12-14T12:36:30.292Z,69.80
2022-12-14T12:39:06.583Z,81.17
2022-12-14T12:41:44.611Z,74.43
2022-12-14T12:44:25.893Z,83.80
2022-12-14T12:49:55.417Z,77.50
2022-12-14T12:52:27.705Z,68.27
2022-12-14T12:55:01.345Z,67.50
2022-12-14T12:57:34.996Z,68.87
2022-12-14T13:00:05.810Z,70.10
2022-12-14T13:02:37.094Z,80.97
2022-12-14T13:05:44.483Z,76.50
2022-12-14T13:08:02.100Z,83.33
2022-12-14T13:10:35.292Z,67.10
2022-12-14T13:13:09.941Z,78.50
2022-12-14T13:15:43.216Z,75.57
2022-12-14T13:18:41.091Z,73.47
2022-12-14T13:21:23.343Z,72.17
2022-12-14T13:23:52.004Z,77.97
2022-12-14T13:26:57.416Z,59.70
2022-12-14T13:29:34.872Z,73.40
2022-12-14T13:32:10.499Z,72.20
2022-12-14T13:34:52.256Z,75.37
2022-12-14T13:37:48.624Z,72.77
2022-12-14T13:40:45.446Z,68.83
2022-12-14T13:43:32.796Z,70.10
2022-12-14T13:46:08.135Z,69.63
2022-12-14T13:48:41.355Z,68.70
2022-12-14T13:51:21.136Z,69.23
2022-12-14T13:53:54.982Z,74.57
2022-12-14T13:56:32.705Z,170.30
2022-12-14T13:59:07.576Z,165.50
2022-12-14T14:02:04.985Z,170.93
2022-12-14T14:04:35.658Z,183.40
2022-12-14T14:07:49.901Z,143.97
2022-12-14T14:10:32.547Z,137.83
2022-12-14T14:13:02.093Z,158.43
2022-12-14T14:18:53.294Z,176.93
2022-12-14T14:21:58.988Z,178.33
2022-12-14T14:24:28.870Z,174.37
2022-12-14T14:27:09.812Z,189.27
2022-12-14T14:29:44.980Z,172.83
2022-12-14T14:32:34.568Z,171.20
2022-12-14T14:35:06.270Z,166.33
2022-12-14T14:37:37.114Z,166.93
2022-12-14T14:40:51.289Z,167.10
2022-12-14T14:43:28.775Z,156.50
2022-12-14T14:46:01.385Z,152.40
2022-12-14T14:48:35.758Z,156.77
2022-12-14T14:51:09.234Z,170.83
2022-12-14T14:53:38.794Z,166.50
2022-12-14T14:56:14.221Z,161.87
2022-12-14T14:58:43.760Z,160.50
2022-12-14T15:01:30.690Z,159.73
2022-12-14T15:04:07.800Z,165.60
2022-12-14T15:06:42.003Z,153.70
2022-12-14T15:09:18.780Z,163.53
2022-12-14T15:11:50.938Z,160.27
2022-12-14T15:14:32.491Z,163.33
2022-12-14T15:17:13.674Z,158.20
2022-12-14T15:19:49.488Z,162.70
2022-12-14T15:22:20.834Z,156.10
2022-12-14T15:24:52.171Z,160.07
2022-12-14T15:27:26.187Z,164.23
2022-12-14T15:29:58.925Z,181.27
2022-12-14T15:32:27.746Z,160.97
2022-12-14T15:34:59.490Z,151.53
2022-12-14T15:37:34.600Z,154.83
2022-12-14T15:40:06.724Z,145.27
2022-12-14T15:42:35.283Z,140.47
2022-12-14T15:45:14.215Z,135.20
2022-12-14T15:47:42.861Z,147.97
2022-12-14T15:50:27.072Z,140.87
2022-12-14T15:53:00.033Z,133.23
2022-12-14T15:55:33.557Z,147.13
2022-12-14T15:58:09.124Z,143.17
2022-12-14T16:00:42.913Z,151.23
2022-12-14T16:03:20.401Z,134.33
2022-12-14T16:05:50.348Z,139.43
2022-12-14T16:08:19.379Z,150.83
2022-12-14T16:10:51.399Z,155.97
2022-12-14T16:13:25.104Z,148.87
2022-12-14T16:15:54.189Z,146.33
2022-12-14T16:18:23.027Z,123.83
2022-12-14T16:20:59.820Z,143.10
2022-12-14T16:23:32.025Z,131.03
2022-12-14T16:26:03.088Z,122.43
2022-12-14T16:28:34.191Z,130.30
2022-12-14T16:31:05.812Z,138.13
2022-12-14T16:33:36.561Z,122.93
2022-12-14T16:36:09.643Z,140.57
2022-12-14T16:38:42.966Z,138.70
2022-12-14T16:41:11.325Z,128.43
2022-12-14T16:43:42.135Z,135.17
2022-12-14T16:46:17.382Z,121.23
2022-12-14T16:49:09.481Z,139.63
2022-12-14T16:54:32.038Z,128.17
2022-12-14T16:57:03.799Z,130.50
2022-12-14T16:59:39.918Z,132.13
2022-12-14T17:02:27.841Z,124.90
2022-12-14T17:04:58.420Z,129.03
2022-12-14T17:07:31.411Z,129.13
2022-12-14T17:10:00.131Z,117.73
2022-12-14T17:12:28.562Z,122.10
2022-12-14T17:14:57.081Z,129.03
2022-12-14T17:17:31.148Z,129.10
2022-12-14T17:20:00.141Z,128.97
2022-12-14T17:22:32.037Z,131.73
2022-12-14T17:25:02.348Z,137.73
2022-12-14T17:27:30.685Z,134.67
2022-12-14T17:29:59.255Z,128.67
2022-12-14T17:32:30.607Z,137.93
2022-12-14T17:35:00.071Z,118.70
2022-12-14T17:37:34.157Z,119.57
2022-12-14T17:40:06.249Z,116.77
2022-12-14T17:42:34.782Z,111.03
2022-12-14T17:45:03.856Z,102.00
2022-12-14T17:47:32.148Z,116.83
2022-12-14T17:50:00.703Z,110.67
2022-12-14T17:52:32.913Z,118.87
2022-12-14T17:55:02.111Z,113.13
2022-12-14T17:57:30.456Z,110.40
2022-12-14T18:00:13.169Z,116.70
2022-12-14T18:02:42.885Z,113.67
2022-12-14T18:05:18.704Z,112.93
2022-12-14T18:07:49.596Z,124.57
2022-12-14T18:10:19.573Z,105.10
2022-12-14T18:12:48.103Z,98.03
2022-12-14T18:15:19.447Z,97.07
2022-12-14T18:17:49.459Z,92.10
2022-12-14T18:20:19.258Z,94.60
2022-12-14T18:22:50.004Z,101.20
2022-12-14T18:25:28.423Z,96.10
2022-12-14T18:27:57.311Z,101.70
2022-12-14T18:30:26.108Z,114.10
2022-12-14T18:32:54.976Z,102.67
2022-12-14T18:35:26.175Z,146.07
2022-12-14T18:37:56.501Z,114.47
2022-12-14T18:40:27.540Z,116.67
2022-12-14T18:42:56.635Z,105.37
2022-12-14T18:45:27.601Z,134.67
2022-12-14T18:47:56.214Z,93.90
2022-12-14T18:50:25.146Z,104.10
2022-12-14T18:52:55.575Z,103.60
2022-12-14T18:55:25.840Z,105.97
2022-12-14T18:57:56.184Z,104.23
2022-12-14T19:00:26.748Z,87.97
2022-12-14T19:02:58.813Z,104.30
2022-12-14T19:05:28.138Z,110.40
2022-12-14T19:07:59.792Z,95.33
2022-12-14T19:10:30.689Z,97.00
2022-12-14T19:13:00.080Z,102.03
2022-12-14T19:15:31.220Z,91.97
2022-12-14T19:17:59.939Z,89.27
2022-12-14T19:20:29.688Z,105.73
2022-12-14T19:22:59.417Z,101.47
2022-12-14T19:25:28.104Z,97.67
2022-12-14T19:28:30.805Z,96.27
2022-12-14T19:30:45.948Z,91.80
2022-12-14T19:33:14.778Z,91.53
2022-12-14T19:35:43.605Z,96.00
2022-12-14T19:38:16.471Z,114.67
2022-12-14T19:40:46.542Z,105.17
2022-12-14T19:43:15.333Z,106.67
2022-12-14T19:45:46.821Z,99.83
2022-12-14T19:48:15.446Z,98.23
2022-12-14T19:50:44.170Z,110.10
2022-12-14T19:53:27.990Z,92.70
2022-12-14T19:55:56.716Z,96.43
2022-12-14T19:58:25.441Z,99.50
2022-12-14T20:00:54.391Z,168.33
2022-12-14T20:03:23.624Z,94.87
2022-12-14T20:05:54.028Z,98.03
2022-12-14T20:08:24.472Z,104.63
2022-12-14T20:10:53.752Z,110.43
2022-12-14T20:13:23.620Z,105.20
2022-12-14T20:15:53.944Z,101.63
2022-12-14T20:18:23.012Z,99.73
2022-12-14T20:20:52.458Z,103.47
2022-12-14T20:23:22.780Z,112.57
2022-12-14T20:25:51.439Z,99.80
2022-12-14T20:28:19.744Z,91.47
2022-12-14T20:30:48.961Z,108.30
2022-12-14T20:33:17.331Z,102.23
2022-12-14T20:35:46.003Z,99.37
2022-12-14T20:38:14.404Z,111.33
2022-12-14T20:40:44.321Z,111.10
2022-12-14T20:43:12.673Z,110.73
2022-12-14T20:45:44.006Z,106.40
2022-12-14T20:48:12.697Z,98.40
2022-12-14T20:50:44.097Z,91.43
2022-12-14T20:53:18.889Z,105.87
2022-12-14T20:55:49.530Z,102.83
2022-12-14T20:58:18.281Z,96.63
2022-12-14T21:00:46.941Z,92.30
2022-12-14T21:03:15.568Z,114.10
2022-12-14T21:05:44.893Z,96.33
2022-12-14T21:08:15.713Z,98.43
2022-12-14T21:10:44.377Z,109.33
2022-12-14T21:13:13.032Z,104.47
2022-12-14T21:15:42.323Z,98.50
2022-12-14T21:18:10.631Z,105.30
2022-12-14T21:20:39.311Z,112.93
2022-12-14T21:23:07.653Z,126.10
2022-12-14T21:25:36.321Z,114.13
2022-12-14T21:28:04.834Z,101.90
2022-12-14T21:30:34.832Z,112.43
2022-12-14T21:33:04.367Z,100.77
2022-12-14T21:35:32.944Z,108.43
2022-12-14T21:38:02.705Z,116.80
2022-12-14T21:40:48.990Z,106.67
2022-12-14T21:43:17.522Z,100.03
2022-12-14T21:45:47.608Z,112.63
2022-12-14T21:48:15.919Z,100.83
2022-12-14T21:50:45.402Z,93.83
2022-12-14T21:53:13.757Z,112.10
2022-12-14T21:55:49.965Z,113.13
2022-12-14T21:58:17.831Z,116.07
2022-12-14T22:00:47.841Z,124.67
2022-12-14T22:03:16.398Z,121.00
2022-12-14T22:05:45.051Z,114.90
2022-12-14T22:08:13.447Z,116.00
2022-12-14T22:10:41.983Z,130.00
2022-12-14T22:13:10.240Z,161.33
2022-12-14T22:15:38.811Z,163.87
2022-12-14T22:18:08.532Z,151.50
2022-12-14T22:20:37.139Z,165.10
2022-12-14T22:23:05.387Z,166.00
2022-12-14T22:25:33.923Z,169.30
2022-12-14T22:28:02.205Z,172.43
2022-12-14T22:30:32.041Z,175.50
2022-12-14T22:33:00.489Z,169.10
2022-12-14T22:35:30.483Z,176.77
2022-12-14T22:38:00.081Z,175.53
2022-12-14T22:40:29.149Z,158.13
2022-12-14T22:42:57.572Z,163.23
2022-12-14T22:45:26.816Z,169.50
2022-12-14T22:47:55.274Z,509.33
2022-12-14T22:50:24.504Z,214.73
2022-12-14T22:52:54.868Z,162.07
2022-12-14T22:55:24.295Z,152.53
2022-12-14T22:57:52.987Z,143.00
2022-12-14T23:00:22.069Z,152.47
2022-12-14T23:02:50.849Z,155.30
2022-12-14T23:05:19.992Z,164.30
2022-12-14T23:07:48.636Z,158.07
2022-12-14T23:10:36.384Z,157.77
2022-12-14T23:13:22.891Z,148.90
2022-12-14T23:16:09.475Z,160.20
2022-12-14T23:18:55.773Z,214.70
2022-12-14T23:21:42.186Z,216.03
2022-12-14T23:24:28.538Z,141.30
2022-12-14T23:27:16.417Z,151.13
2022-12-14T23:30:02.455Z,153.00
2022-12-14T23:32:48.531Z,176.73
2022-12-14T23:35:35.095Z,155.53
2022-12-14T23:38:24.605Z,139.87
2022-12-14T23:41:10.998Z,135.53
2022-12-14T23:43:59.060Z,148.90
2022-12-14T23:46:45.629Z,151.90
2022-12-14T23:49:32.246Z,144.53
2022-12-14T23:52:18.612Z,164.60
2022-12-14T23:55:05.230Z,156.97
2022-12-14T23:57:51.155Z,162.70
